sensor_id;sensor_type;location;lat;lon;timestamp;P1;P2;P0
24012;PMS7003;12220;50.194;18.948;2023-11-19T00:00:39;67;50;28
24012;PMS7003;12220;50.194;18.948;2023-11-19T00:24:22;45;38;21
24012;PMS7003;12220;50.194;18.948;2023-11-19T00:43:33;52;36;22
24012;PMS7003;12220;50.194;18.948;2023-11-19T00:45:35;54;41;24
24012;PMS7003;12220;50.194;18.948;2023-11-19T00:47:40;52;41;22
24012;PMS7003;12220;50.194;18.948;2023-11-19T00:54:28;40;36;23
24012;PMS7003;12220;50.194;18.948;2023-11-19T00:56:29;51;39;21
24012;PMS7003;12220;50.194;18.948;2023-11-19T00:58:41;60;45;27
24012;PMS7003;12220;50.194;18.948;2023-11-19T01:05:36;55;43;23
24012;PMS7003;12220;50.194;18.948;2023-11-19T01:14:31;50;40;25
24012;PMS7003;12220;50.194;18.948;2023-11-19T01:16:32;63;47;25
24012;PMS7003;12220;50.194;18.948;2023-11-19T01:18:34;72;52;30
24012;PMS7003;12220;50.194;18.948;2023-11-19T01:20:36;67;52;31
24012;PMS7003;12220;50.194;18.948;2023-11-19T01:25:19;59;44;25
24012;PMS7003;12220;50.194;18.948;2023-11-19T01:27:30;53;39;24
24012;PMS7003;12220;50.194;18.948;2023-11-19T01:29:32;52;41;27
24012;PMS7003;12220;50.194;18.948;2023-11-19T01:38:56;47;40;24
24012;PMS7003;12220;50.194;18.948;2023-11-19T01:50:47;55;40;24
24012;PMS7003;12220;50.194;18.948;2023-11-19T01:54:09;55;40;24
24012;PMS7003;12220;50.194;18.948;2023-11-19T01:58:32;55;43;24
24012;PMS7003;12220;50.194;18.948;2023-11-19T02:05:27;46;36;22
24012;PMS7003;12220;50.194;18.948;2023-11-19T02:07:29;40;33;17
24012;PMS7003;12220;50.194;18.948;2023-11-19T02:09:50;57;43;25
24012;PMS7003;12220;50.194;18.948;2023-11-19T02:19:01;42;33;20
24012;PMS7003;12220;50.194;18.948;2023-11-19T02:23:32;50;40;23
24012;PMS7003;12220;50.194;18.948;2023-11-19T02:28:07;52;38;24
24012;PMS7003;12220;50.194;18.948;2023-11-19T02:30:26;45;36;24
24012;PMS7003;12220;50.194;18.948;2023-11-19T02:32:44;43;36;21
24012;PMS7003;12220;50.194;18.948;2023-11-19T02:34:53;42;34;18
24012;PMS7003;12220;50.194;18.948;2023-11-19T02:36:54;48;39;22
24012;PMS7003;12220;50.194;18.948;2023-11-19T02:38:58;47;40;24
24012;PMS7003;12220;50.194;18.948;2023-11-19T02:43:24;49;40;22
24012;PMS7003;12220;50.194;18.948;2023-11-19T02:45:25;54;43;24
24012;PMS7003;12220;50.194;18.948;2023-11-19T02:52:21;51;39;24
24012;PMS7003;12220;50.194;18.948;2023-11-19T02:56:49;53;42;26
24012;PMS7003;12220;50.194;18.948;2023-11-19T02:59:00;56;42;26
24012;PMS7003;12220;50.194;18.948;2023-11-19T03:03:46;59;46;26
24012;PMS7003;12220;50.194;18.948;2023-11-19T03:05:59;56;40;26
24012;PMS7003;12220;50.194;18.948;2023-11-19T03:12:54;51;41;23
24012;PMS7003;12220;50.194;18.948;2023-11-19T03:15:02;43;37;22
24012;PMS7003;12220;50.194;18.948;2023-11-19T03:19:30;44;33;21
24012;PMS7003;12220;50.194;18.948;2023-11-19T03:21:32;49;37;23
24012;PMS7003;12220;50.194;18.948;2023-11-19T03:23:33;50;36;22
24012;PMS7003;12220;50.194;18.948;2023-11-19T03:25:36;43;32;22
24012;PMS7003;12220;50.194;18.948;2023-11-19T03:27:38;49;37;21
24012;PMS7003;12220;50.194;18.948;2023-11-19T03:29:44;47;36;23
24012;PMS7003;12220;50.194;18.948;2023-11-19T03:31:45;44;38;22
24012;PMS7003;12220;50.194;18.948;2023-11-19T03:41:11;44;33;17
24012;PMS7003;12220;50.194;18.948;2023-11-19T03:43:16;41;32;20
24012;PMS7003;12220;50.194;18.948;2023-11-19T03:45:19;40;34;22
24012;PMS7003;12220;50.194;18.948;2023-11-19T03:50:33;41;33;20
24012;PMS7003;12220;50.194;18.948;2023-11-19T03:52:13;37;33;19
24012;PMS7003;12220;50.194;18.948;2023-11-19T03:54:15;33;31;20
24012;PMS7003;12220;50.194;18.948;2023-11-19T03:56:18;33;29;15
24012;PMS7003;12220;50.194;18.948;2023-11-19T03:58:21;38;31;19
24012;PMS7003;12220;50.194;18.948;2023-11-19T04:00:23;34;29;18
24012;PMS7003;12220;50.194;18.948;2023-11-19T04:04:33;28;26;18
24012;PMS7003;12220;50.194;18.948;2023-11-19T04:06:35;36;31;18
24012;PMS7003;12220;50.194;18.948;2023-11-19T04:08:36;37;28;20
24012;PMS7003;12220;50.194;18.948;2023-11-19T04:10:38;31;29;19
24012;PMS7003;12220;50.194;18.948;2023-11-19T04:12:48;29;27;18
24012;PMS7003;12220;50.194;18.948;2023-11-19T04:14:50;41;33;20
24012;PMS7003;12220;50.194;18.948;2023-11-19T04:16:51;41;34;20
24012;PMS7003;12220;50.194;18.948;2023-11-19T04:18:53;35;29;18
24012;PMS7003;12220;50.194;18.948;2023-11-19T04:21:05;43;35;22
24012;PMS7003;12220;50.194;18.948;2023-11-19T04:23:08;30;26;17
24012;PMS7003;12220;50.194;18.948;2023-11-19T04:25:09;31;27;16
24012;PMS7003;12220;50.194;18.948;2023-11-19T04:27:11;38;31;16
24012;PMS7003;12220;50.194;18.948;2023-11-19T04:29:19;38;30;18
24012;PMS7003;12220;50.194;18.948;2023-11-19T04:31:20;36;24;14
24012;PMS7003;12220;50.194;18.948;2023-11-19T04:33:22;30;26;16
24012;PMS7003;12220;50.194;18.948;2023-11-19T04:35:23;41;30;18
24012;PMS7003;12220;50.194;18.948;2023-11-19T04:37:35;39;31;15
24012;PMS7003;12220;50.194;18.948;2023-11-19T04:39:36;28;21;13
24012;PMS7003;12220;50.194;18.948;2023-11-19T04:43:53;44;33;18
24012;PMS7003;12220;50.194;18.948;2023-11-19T04:45:55;35;32;20
24012;PMS7003;12220;50.194;18.948;2023-11-19T04:50:06;40;34;21
24012;PMS7003;12220;50.194;18.948;2023-11-19T04:52:11;33;25;17
24012;PMS7003;12220;50.194;18.948;2023-11-19T04:56:39;43;35;20
24012;PMS7003;12220;50.194;18.948;2023-11-19T04:58:41;31;28;17
24012;PMS7003;12220;50.194;18.948;2023-11-19T05:00:42;33;24;15
24012;PMS7003;12220;50.194;18.948;2023-11-19T05:02:44;29;28;18
24012;PMS7003;12220;50.194;18.948;2023-11-19T05:04:47;38;29;18
24012;PMS7003;12220;50.194;18.948;2023-11-19T05:06:49;40;32;22
24012;PMS7003;12220;50.194;18.948;2023-11-19T05:08:51;42;35;22
24012;PMS7003;12220;50.194;18.948;2023-11-19T05:10:52;51;37;23
24012;PMS7003;12220;50.194;18.948;2023-11-19T05:13:02;39;32;23
24012;PMS7003;12220;50.194;18.948;2023-11-19T05:15:04;48;36;23
24012;PMS7003;12220;50.194;18.948;2023-11-19T05:17:06;45;39;23
24012;PMS7003;12220;50.194;18.948;2023-11-19T05:19:08;29;22;12
24012;PMS7003;12220;50.194;18.948;2023-11-19T05:21:18;40;35;21
24012;PMS7003;12220;50.194;18.948;2023-11-19T05:23:19;46;35;21
24012;PMS7003;12220;50.194;18.948;2023-11-19T05:25:21;34;32;18
24012;PMS7003;12220;50.194;18.948;2023-11-19T05:27:23;29;23;17
24012;PMS7003;12220;50.194;18.948;2023-11-19T05:29:33;38;31;20
24012;PMS7003;12220;50.194;18.948;2023-11-19T05:31:38;40;35;22
24012;PMS7003;12220;50.194;18.948;2023-11-19T05:33:39;42;32;21
24012;PMS7003;12220;50.194;18.948;2023-11-19T05:35:41;37;30;18
24012;PMS7003;12220;50.194;18.948;2023-11-19T05:37:48;46;35;20
24012;PMS7003;12220;50.194;18.948;2023-11-19T05:39:50;45;38;23
24012;PMS7003;12220;50.194;18.948;2023-11-19T05:44:10;53;42;24
24012;PMS7003;12220;50.194;18.948;2023-11-19T05:46:12;45;37;21
24012;PMS7003;12220;50.194;18.948;2023-11-19T05:48:14;41;36;24
24012;PMS7003;12220;50.194;18.948;2023-11-19T05:50:15;36;31;19
24012;PMS7003;12220;50.194;18.948;2023-11-19T05:52:16;37;33;22
24012;PMS7003;12220;50.194;18.948;2023-11-19T05:54:20;33;30;19
24012;PMS7003;12220;50.194;18.948;2023-11-19T05:56:22;34;28;18
24012;PMS7003;12220;50.194;18.948;2023-11-19T05:58:24;38;29;18
24012;PMS7003;12220;50.194;18.948;2023-11-19T06:00:33;33;28;17
24012;PMS7003;12220;50.194;18.948;2023-11-19T06:02:39;37;26;18
24012;PMS7003;12220;50.194;18.948;2023-11-19T06:04:41;32;29;17
24012;PMS7003;12220;50.194;18.948;2023-11-19T06:06:48;28;26;15
24012;PMS7003;12220;50.194;18.948;2023-11-19T06:08:49;35;29;18
24012;PMS7003;12220;50.194;18.948;2023-11-19T06:10:53;48;34;17
24012;PMS7003;12220;50.194;18.948;2023-11-19T06:12:54;37;33;21
24012;PMS7003;12220;50.194;18.948;2023-11-19T06:15:04;42;33;20
24012;PMS7003;12220;50.194;18.948;2023-11-19T06:17:07;41;32;20
24012;PMS7003;12220;50.194;18.948;2023-11-19T06:19:12;41;31;19
24012;PMS7003;12220;50.194;18.948;2023-11-19T06:21:14;49;38;23
24012;PMS7003;12220;50.194;18.948;2023-11-19T06:23:15;39;34;24
24012;PMS7003;12220;50.194;18.948;2023-11-19T06:25:17;47;36;24
24012;PMS7003;12220;50.194;18.948;2023-11-19T06:27:23;47;35;23
24012;PMS7003;12220;50.194;18.948;2023-11-19T06:29:25;51;40;23
24012;PMS7003;12220;50.194;18.948;2023-11-19T06:31:26;44;32;22
24012;PMS7003;12220;50.194;18.948;2023-11-19T06:35:41;54;43;27
24012;PMS7003;12220;50.194;18.948;2023-11-19T06:37:43;53;40;23
24012;PMS7003;12220;50.194;18.948;2023-11-19T06:39:44;47;38;23
24012;PMS7003;12220;50.194;18.948;2023-11-19T06:41:46;39;32;21
24012;PMS7003;12220;50.194;18.948;2023-11-19T06:43:54;53;40;27
24012;PMS7003;12220;50.194;18.948;2023-11-19T06:45:55;48;36;23
24012;PMS7003;12220;50.194;18.948;2023-11-19T06:47:57;43;36;23
24012;PMS7003;12220;50.194;18.948;2023-11-19T06:49:59;40;34;20
24012;PMS7003;12220;50.194;18.948;2023-11-19T06:52:09;38;32;21
24012;PMS7003;12220;50.194;18.948;2023-11-19T06:54:10;45;34;20
24012;PMS7003;12220;50.194;18.948;2023-11-19T06:58:23;56;42;26
24012;PMS7003;12220;50.194;18.948;2023-11-19T07:00:24;53;41;26
24012;PMS7003;12220;50.194;18.948;2023-11-19T07:02:26;45;39;24
24012;PMS7003;12220;50.194;18.948;2023-11-19T07:04:27;58;46;28
24012;PMS7003;12220;50.194;18.948;2023-11-19T07:06:29;55;41;24
24012;PMS7003;12220;50.194;18.948;2023-11-19T07:08:42;45;34;20
24012;PMS7003;12220;50.194;18.948;2023-11-19T07:10:47;46;37;23
24012;PMS7003;12220;50.194;18.948;2023-11-19T07:12:49;52;41;26
24012;PMS7003;12220;50.194;18.948;2023-11-19T07:14:51;53;40;21
24012;PMS7003;12220;50.194;18.948;2023-11-19T07:16:54;46;37;22
24012;PMS7003;12220;50.194;18.948;2023-11-19T07:21:23;45;39;24
24012;PMS7003;12220;50.194;18.948;2023-11-19T07:25:40;45;38;23
24012;PMS7003;12220;50.194;18.948;2023-11-19T07:27:45;47;35;22
24012;PMS7003;12220;50.194;18.948;2023-11-19T07:29:49;49;35;19
24012;PMS7003;12220;50.194;18.948;2023-11-19T07:31:51;46;38;24
24012;PMS7003;12220;50.194;18.948;2023-11-19T07:33:54;51;37;23
24012;PMS7003;12220;50.194;18.948;2023-11-19T07:35:56;45;33;21
24012;PMS7003;12220;50.194;18.948;2023-11-19T07:37:57;58;39;25
24012;PMS7003;12220;50.194;18.948;2023-11-19T07:40:01;49;40;26
24012;PMS7003;12220;50.194;18.948;2023-11-19T07:42:09;58;43;25
24012;PMS7003;12220;50.194;18.948;2023-11-19T07:44:11;61;45;26
24012;PMS7003;12220;50.194;18.948;2023-11-19T07:46:15;54;43;27
24012;PMS7003;12220;50.194;18.948;2023-11-19T07:48:19;55;44;28
24012;PMS7003;12220;50.194;18.948;2023-11-19T07:50:25;59;41;24
24012;PMS7003;12220;50.194;18.948;2023-11-19T07:52:27;58;43;27
24012;PMS7003;12220;50.194;18.948;2023-11-19T07:54:29;54;44;26
24012;PMS7003;12220;50.194;18.948;2023-11-19T07:56:33;56;44;27
24012;PMS7003;12220;50.194;18.948;2023-11-19T07:58:40;61;45;29
24012;PMS7003;12220;50.194;18.948;2023-11-19T08:00:42;60;43;24
24012;PMS7003;12220;50.194;18.948;2023-11-19T08:02:43;63;49;30
24012;PMS7003;12220;50.194;18.948;2023-11-19T08:04:45;57;44;28
24012;PMS7003;12220;50.194;18.948;2023-11-19T08:06:57;62;45;26
24012;PMS7003;12220;50.194;18.948;2023-11-19T08:09:02;55;41;23
24012;PMS7003;12220;50.194;18.948;2023-11-19T08:11:04;57;43;26
24012;PMS7003;12220;50.194;18.948;2023-11-19T08:13:06;61;45;27
24012;PMS7003;12220;50.194;18.948;2023-11-19T08:15:10;47;39;23
24012;PMS7003;12220;50.194;18.948;2023-11-19T08:17:12;57;44;25
24012;PMS7003;12220;50.194;18.948;2023-11-19T08:19:13;55;45;27
24012;PMS7003;12220;50.194;18.948;2023-11-19T08:21:15;54;42;25
24012;PMS7003;12220;50.194;18.948;2023-11-19T08:23:25;58;44;25
24012;PMS7003;12220;50.194;18.948;2023-11-19T08:25:29;57;45;27
24012;PMS7003;12220;50.194;18.948;2023-11-19T08:27:30;60;46;25
24012;PMS7003;12220;50.194;18.948;2023-11-19T08:29:32;58;42;25
24012;PMS7003;12220;50.194;18.948;2023-11-19T08:31:41;56;42;26
24012;PMS7003;12220;50.194;18.948;2023-11-19T08:33:43;61;44;27
24012;PMS7003;12220;50.194;18.948;2023-11-19T08:35:44;56;45;28
24012;PMS7003;12220;50.194;18.948;2023-11-19T08:37:47;51;41;26
24012;PMS7003;12220;50.194;18.948;2023-11-19T08:39:56;56;41;24
24012;PMS7003;12220;50.194;18.948;2023-11-19T08:41:57;58;44;26
24012;PMS7003;12220;50.194;18.948;2023-11-19T08:43:59;48;40;24
24012;PMS7003;12220;50.194;18.948;2023-11-19T08:46:00;56;45;28
24012;PMS7003;12220;50.194;18.948;2023-11-19T08:48:11;51;39;25
24012;PMS7003;12220;50.194;18.948;2023-11-19T08:50:12;59;45;25
24012;PMS7003;12220;50.194;18.948;2023-11-19T08:52:14;50;39;23
24012;PMS7003;12220;50.194;18.948;2023-11-19T08:54:18;49;39;26
24012;PMS7003;12220;50.194;18.948;2023-11-19T08:56:26;51;40;25
24012;PMS7003;12220;50.194;18.948;2023-11-19T08:58:33;56;43;26
24012;PMS7003;12220;50.194;18.948;2023-11-19T09:00:34;55;41;26
24012;PMS7003;12220;50.194;18.948;2023-11-19T09:02:36;57;42;26
24012;PMS7003;12220;50.194;18.948;2023-11-19T09:04:41;58;46;29
24012;PMS7003;12220;50.194;18.948;2023-11-19T09:06:43;65;47;28
24012;PMS7003;12220;50.194;18.948;2023-11-19T09:08:45;63;47;28
24012;PMS7003;12220;50.194;18.948;2023-11-19T09:10:46;56;42;26
24012;PMS7003;12220;50.194;18.948;2023-11-19T09:12:57;58;43;27
24012;PMS7003;12220;50.194;18.948;2023-11-19T09:14:58;63;48;29
24012;PMS7003;12220;50.194;18.948;2023-11-19T09:17:00;56;42;27
24012;PMS7003;12220;50.194;18.948;2023-11-19T09:19:01;55;42;26
24012;PMS7003;12220;50.194;18.948;2023-11-19T09:21:12;44;33;23
24012;PMS7003;12220;50.194;18.948;2023-11-19T09:23:17;55;42;25
24012;PMS7003;12220;50.194;18.948;2023-11-19T09:25:21;56;45;26
24012;PMS7003;12220;50.194;18.948;2023-11-19T09:27:22;68;47;28
24012;PMS7003;12220;50.194;18.948;2023-11-19T09:29:27;56;43;26
24012;PMS7003;12220;50.194;18.948;2023-11-19T09:31:29;54;42;25
24012;PMS7003;12220;50.194;18.948;2023-11-19T09:33:30;59;46;28
24012;PMS7003;12220;50.194;18.948;2023-11-19T09:35:32;59;42;26
24012;PMS7003;12220;50.194;18.948;2023-11-19T09:37:43;64;47;28
24012;PMS7003;12220;50.194;18.948;2023-11-19T09:39:44;61;47;28
24012;PMS7003;12220;50.194;18.948;2023-11-19T09:41:46;65;50;30
24012;PMS7003;12220;50.194;18.948;2023-11-19T09:43:49;56;43;28
24012;PMS7003;12220;50.194;18.948;2023-11-19T09:45:57;63;46;26
24012;PMS7003;12220;50.194;18.948;2023-11-19T09:48:07;60;44;27
24012;PMS7003;12220;50.194;18.948;2023-11-19T09:50:10;63;43;24
24012;PMS7003;12220;50.194;18.948;2023-11-19T09:52:17;62;45;28
24012;PMS7003;12220;50.194;18.948;2023-11-19T09:54:21;57;46;27
24012;PMS7003;12220;50.194;18.948;2023-11-19T09:56:22;48;38;21
24012;PMS7003;12220;50.194;18.948;2023-11-19T09:58:24;62;47;29
24012;PMS7003;12220;50.194;18.948;2023-11-19T10:02:52;63;48;30
24012;PMS7003;12220;50.194;18.948;2023-11-19T10:04:55;62;48;28
24012;PMS7003;12220;50.194;18.948;2023-11-19T10:06:58;63;48;29
24012;PMS7003;12220;50.194;18.948;2023-11-19T10:09:01;61;47;28
24012;PMS7003;12220;50.194;18.948;2023-11-19T10:11:08;56;46;28
24012;PMS7003;12220;50.194;18.948;2023-11-19T10:13:13;59;47;27
24012;PMS7003;12220;50.194;18.948;2023-11-19T10:17:28;57;44;28
24012;PMS7003;12220;50.194;18.948;2023-11-19T10:19:33;53;43;27
24012;PMS7003;12220;50.194;18.948;2023-11-19T10:21:34;58;44;28
24012;PMS7003;12220;50.194;18.948;2023-11-19T10:28:08;60;45;27
24012;PMS7003;12220;50.194;18.948;2023-11-19T10:30:09;54;42;25
24012;PMS7003;12220;50.194;18.948;2023-11-19T10:32:12;57;43;26
24012;PMS7003;12220;50.194;18.948;2023-11-19T10:40:55;58;45;26
24012;PMS7003;12220;50.194;18.948;2023-11-19T10:43:03;44;37;24
24012;PMS7003;12220;50.194;18.948;2023-11-19T10:45:05;51;39;23
24012;PMS7003;12220;50.194;18.948;2023-11-19T10:49:34;54;43;25
24012;PMS7003;12220;50.194;18.948;2023-11-19T10:51:36;46;33;22
24012;PMS7003;12220;50.194;18.948;2023-11-19T10:53:48;35;32;21
24012;PMS7003;12220;50.194;18.948;2023-11-19T10:55:54;38;34;21
24012;PMS7003;12220;50.194;18.948;2023-11-19T10:58:00;42;31;18
24012;PMS7003;12220;50.194;18.948;2023-11-19T11:00:06;42;35;22
24012;PMS7003;12220;50.194;18.948;2023-11-19T11:02:14;24;23;14
24012;PMS7003;12220;50.194;18.948;2023-11-19T11:04:25;33;24;17
24012;PMS7003;12220;50.194;18.948;2023-11-19T11:06:32;36;26;15
24012;PMS7003;12220;50.194;18.948;2023-11-19T11:08:36;41;29;19
24012;PMS7003;12220;50.194;18.948;2023-11-19T11:10:43;33;30;19
24012;PMS7003;12220;50.194;18.948;2023-11-19T11:12:46;43;34;22
24012;PMS7003;12220;50.194;18.948;2023-11-19T11:15:02;35;31;20
24012;PMS7003;12220;50.194;18.948;2023-11-19T11:17:07;34;30;20
24012;PMS7003;12220;50.194;18.948;2023-11-19T11:19:12;45;36;23
24012;PMS7003;12220;50.194;18.948;2023-11-19T11:21:14;53;38;22
24012;PMS7003;12220;50.194;18.948;2023-11-19T11:28:03;50;36;22
24012;PMS7003;12220;50.194;18.948;2023-11-19T11:35:10;51;40;26
24012;PMS7003;12220;50.194;18.948;2023-11-19T11:37:30;47;35;21
24012;PMS7003;12220;50.194;18.948;2023-11-19T11:44:17;52;40;25
24012;PMS7003;12220;50.194;18.948;2023-11-19T11:48:33;48;38;24
24012;PMS7003;12220;50.194;18.948;2023-11-19T11:50:35;50;40;25
24012;PMS7003;12220;50.194;18.948;2023-11-19T11:54:59;53;39;24
24012;PMS7003;12220;50.194;18.948;2023-11-19T11:57:10;48;40;25
24012;PMS7003;12220;50.194;18.948;2023-11-19T11:59:22;55;41;26
24012;PMS7003;12220;50.194;18.948;2023-11-19T12:01:31;54;44;24
24012;PMS7003;12220;50.194;18.948;2023-11-19T12:03:32;60;47;28
24012;PMS7003;12220;50.194;18.948;2023-11-19T12:07:54;54;42;25
24012;PMS7003;12220;50.194;18.948;2023-11-19T12:12:18;58;42;27
24012;PMS7003;12220;50.194;18.948;2023-11-19T12:16:50;51;41;25
24012;PMS7003;12220;50.194;18.948;2023-11-19T12:18:52;42;37;23
24012;PMS7003;12220;50.194;18.948;2023-11-19T12:20:56;35;32;20
24012;PMS7003;12220;50.194;18.948;2023-11-19T12:23:02;38;32;20
24012;PMS7003;12220;50.194;18.948;2023-11-19T12:34:46;32;27;19
24012;PMS7003;12220;50.194;18.948;2023-11-19T12:36:53;32;30;19
24012;PMS7003;12220;50.194;18.948;2023-11-19T12:38:54;31;27;18
24012;PMS7003;12220;50.194;18.948;2023-11-19T12:43:11;41;35;22
24012;PMS7003;12220;50.194;18.948;2023-11-19T12:45:23;33;30;17
24012;PMS7003;12220;50.194;18.948;2023-11-19T12:47:29;34;31;21
24012;PMS7003;12220;50.194;18.948;2023-11-19T12:49:31;21;20;17
24012;PMS7003;12220;50.194;18.948;2023-11-19T12:51:33;46;37;23
24012;PMS7003;12220;50.194;18.948;2023-11-19T12:53:46;40;32;21
24012;PMS7003;12220;50.194;18.948;2023-11-19T12:55:46;28;25;17
24012;PMS7003;12220;50.194;18.948;2023-11-19T12:57:48;30;24;17
24012;PMS7003;12220;50.194;18.948;2023-11-19T13:02:00;32;28;20
24012;PMS7003;12220;50.194;18.948;2023-11-19T13:06:22;25;21;12
24012;PMS7003;12220;50.194;18.948;2023-11-19T13:08:23;22;21;12
24012;PMS7003;12220;50.194;18.948;2023-11-19T13:10:30;23;18;9
24012;PMS7003;12220;50.194;18.948;2023-11-19T13:12:32;22;20;12
24012;PMS7003;12220;50.194;18.948;2023-11-19T13:14:37;18;16;10
24012;PMS7003;12220;50.194;18.948;2023-11-19T13:26:27;26;24;15
24012;PMS7003;12220;50.194;18.948;2023-11-19T13:28:29;28;22;15
24012;PMS7003;12220;50.194;18.948;2023-11-19T13:30:38;21;20;13
24012;PMS7003;12220;50.194;18.948;2023-11-19T13:32:39;22;19;14
24012;PMS7003;12220;50.194;18.948;2023-11-19T13:34:41;20;19;13
24012;PMS7003;12220;50.194;18.948;2023-11-19T13:36:42;18;16;12
24012;PMS7003;12220;50.194;18.948;2023-11-19T13:38:53;27;23;13
24012;PMS7003;12220;50.194;18.948;2023-11-19T13:40:59;17;16;12
24012;PMS7003;12220;50.194;18.948;2023-11-19T13:43:01;26;18;11
24012;PMS7003;12220;50.194;18.948;2023-11-19T13:45:03;23;20;11
24012;PMS7003;12220;50.194;18.948;2023-11-19T13:47:10;17;15;11
24012;PMS7003;12220;50.194;18.948;2023-11-19T13:49:15;16;14;9
24012;PMS7003;12220;50.194;18.948;2023-11-19T13:51:22;23;21;12
24012;PMS7003;12220;50.194;18.948;2023-11-19T13:53:24;31;23;14
24012;PMS7003;12220;50.194;18.948;2023-11-19T13:55:27;20;19;11
24012;PMS7003;12220;50.194;18.948;2023-11-19T13:57:30;18;16;12
24012;PMS7003;12220;50.194;18.948;2023-11-19T13:59:32;31;29;19
24012;PMS7003;12220;50.194;18.948;2023-11-19T14:01:34;12;11;10
24012;PMS7003;12220;50.194;18.948;2023-11-19T14:03:42;26;22;16
24012;PMS7003;12220;50.194;18.948;2023-11-19T14:05:44;28;22;14
24012;PMS7003;12220;50.194;18.948;2023-11-19T14:07:46;31;27;17
24012;PMS7003;12220;50.194;18.948;2023-11-19T14:09:52;28;22;15
24012;PMS7003;12220;50.194;18.948;2023-11-19T14:11:57;28;24;15
24012;PMS7003;12220;50.194;18.948;2023-11-19T14:13:58;24;24;14
24012;PMS7003;12220;50.194;18.948;2023-11-19T14:16:00;20;19;13
24012;PMS7003;12220;50.194;18.948;2023-11-19T14:18:02;30;26;16
24012;PMS7003;12220;50.194;18.948;2023-11-19T14:20:47;24;21;16
24012;PMS7003;12220;50.194;18.948;2023-11-19T14:22:52;23;21;14
24012;PMS7003;12220;50.194;18.948;2023-11-19T14:24:53;14;12;8
24012;PMS7003;12220;50.194;18.948;2023-11-19T14:26:56;18;17;11
24012;PMS7003;12220;50.194;18.948;2023-11-19T14:28:59;19;18;12
24012;PMS7003;12220;50.194;18.948;2023-11-19T14:31:01;15;14;10
24012;PMS7003;12220;50.194;18.948;2023-11-19T14:33:05;20;18;13
24012;PMS7003;12220;50.194;18.948;2023-11-19T14:35:08;22;21;13
24012;PMS7003;12220;50.194;18.948;2023-11-19T14:37:09;15;14;11
24012;PMS7003;12220;50.194;18.948;2023-11-19T14:39:12;14;11;10
24012;PMS7003;12220;50.194;18.948;2023-11-19T14:41:19;21;20;16
24012;PMS7003;12220;50.194;18.948;2023-11-19T14:43:21;19;18;12
24012;PMS7003;12220;50.194;18.948;2023-11-19T14:45:22;19;17;11
24012;PMS7003;12220;50.194;18.948;2023-11-19T14:47:24;17;12;9
24012;PMS7003;12220;50.194;18.948;2023-11-19T14:49:35;15;13;11
24012;PMS7003;12220;50.194;18.948;2023-11-19T14:51:37;22;16;12
24012;PMS7003;12220;50.194;18.948;2023-11-19T14:53:39;15;14;12
24012;PMS7003;12220;50.194;18.948;2023-11-19T14:55:40;13;13;10
24012;PMS7003;12220;50.194;18.948;2023-11-19T14:57:49;12;11;11
24012;PMS7003;12220;50.194;18.948;2023-11-19T14:59:52;13;12;8
24012;PMS7003;12220;50.194;18.948;2023-11-19T15:01:53;14;13;10
24012;PMS7003;12220;50.194;18.948;2023-11-19T15:03:55;14;13;8
24012;PMS7003;12220;50.194;18.948;2023-11-19T15:06:05;14;14;9
24012;PMS7003;12220;50.194;18.948;2023-11-19T15:08:10;22;19;16
24012;PMS7003;12220;50.194;18.948;2023-11-19T15:10:11;14;14;8
24012;PMS7003;12220;50.194;18.948;2023-11-19T15:12:13;15;13;11
24012;PMS7003;12220;50.194;18.948;2023-11-19T15:14:20;17;17;12
24012;PMS7003;12220;50.194;18.948;2023-11-19T15:16:21;18;18;12
24012;PMS7003;12220;50.194;18.948;2023-11-19T15:18:32;21;19;14
24012;PMS7003;12220;50.194;18.948;2023-11-19T15:20:34;15;12;8
24012;PMS7003;12220;50.194;18.948;2023-11-19T15:22:37;14;11;8
24012;PMS7003;12220;50.194;18.948;2023-11-19T15:24:39;17;16;11
24012;PMS7003;12220;50.194;18.948;2023-11-19T15:26:42;27;16;14
24012;PMS7003;12220;50.194;18.948;2023-11-19T15:28:44;17;16;11
24012;PMS7003;12220;50.194;18.948;2023-11-19T15:30:52;22;20;14
24012;PMS7003;12220;50.194;18.948;2023-11-19T15:32:54;22;22;13
24012;PMS7003;12220;50.194;18.948;2023-11-19T15:34:55;16;16;12
24012;PMS7003;12220;50.194;18.948;2023-11-19T15:36:57;20;19;14
24012;PMS7003;12220;50.194;18.948;2023-11-19T15:39:07;22;17;13
24012;PMS7003;12220;50.194;18.948;2023-11-19T15:41:11;17;17;14
24012;PMS7003;12220;50.194;18.948;2023-11-19T15:43:13;20;19;13
24012;PMS7003;12220;50.194;18.948;2023-11-19T15:45:15;20;20;13
24012;PMS7003;12220;50.194;18.948;2023-11-19T15:47:22;20;20;13
24012;PMS7003;12220;50.194;18.948;2023-11-19T15:49:24;16;15;10
24012;PMS7003;12220;50.194;18.948;2023-11-19T15:51:25;21;19;11
24012;PMS7003;12220;50.194;18.948;2023-11-19T15:53:27;21;18;14
24012;PMS7003;12220;50.194;18.948;2023-11-19T15:55:40;12;11;8
24012;PMS7003;12220;50.194;18.948;2023-11-19T15:57:42;18;17;14
24012;PMS7003;12220;50.194;18.948;2023-11-19T15:59:43;10;10;9
24012;PMS7003;12220;50.194;18.948;2023-11-19T16:01:48;16;15;11
24012;PMS7003;12220;50.194;18.948;2023-11-19T16:03:53;11;10;5
24012;PMS7003;12220;50.194;18.948;2023-11-19T16:05:54;15;15;11
24012;PMS7003;12220;50.194;18.948;2023-11-19T16:07:55;19;13;11
24012;PMS7003;12220;50.194;18.948;2023-11-19T16:09:57;15;11;9
24012;PMS7003;12220;50.194;18.948;2023-11-19T16:12:08;13;12;8
24012;PMS7003;12220;50.194;18.948;2023-11-19T16:14:10;12;11;7
24012;PMS7003;12220;50.194;18.948;2023-11-19T16:16:12;12;11;7
24012;PMS7003;12220;50.194;18.948;2023-11-19T16:18:13;21;19;13
24012;PMS7003;12220;50.194;18.948;2023-11-19T16:20:23;19;16;12
24012;PMS7003;12220;50.194;18.948;2023-11-19T16:22:27;18;18;13
24012;PMS7003;12220;50.194;18.948;2023-11-19T16:24:29;21;17;12
24012;PMS7003;12220;50.194;18.948;2023-11-19T16:26:30;21;19;12
24012;PMS7003;12220;50.194;18.948;2023-11-19T16:28:38;15;15;10
24012;PMS7003;12220;50.194;18.948;2023-11-19T16:30:41;16;16;11
24012;PMS7003;12220;50.194;18.948;2023-11-19T16:34:57;18;18;14
24012;PMS7003;12220;50.194;18.948;2023-11-19T16:36:58;15;15;11
24012;PMS7003;12220;50.194;18.948;2023-11-19T16:38:59;20;16;10
24012;PMS7003;12220;50.194;18.948;2023-11-19T16:41:02;25;19;15
24012;PMS7003;12220;50.194;18.948;2023-11-19T16:43:07;17;17;12